Airfield :
LOGIN :

Register | Disclaimer

   EN    FR    IT 

 










Legend :    VFR   Marginal VFR   IFR   Intensive IFR   Very Intensive IFR
Visi :
Ceiling :
>= 8 km
>= 3000ft
5 to 8 km
1000 to 3000 ft
1500m to 5 km
500 to 1000 ft
800 to 1500m
200 to 500 ft
< 800m
< 200 ft
Symbols :   Thunderstorms  Fog  Heavy snow  Heavy precipitations  Wind > 20 kt
SIGMETs :     Misc.  Thunderstorms  Icing  Turbulence  Mountain Waves  Volcanic Ashes






- Airport Elevation : 157 ft
- IATA code : LIL


LFQQ - Lille Lesquin

CURRENT METAR :
  • 281130Z AUTO 20005KT 9999 FEW007 BKN180 10/09 Q1010 NOSIG

EXPIRED METARs :
  • 281100Z AUTO 22006KT 190V250 9999 FEW006 OVC180 10/09 Q1010 TEMPO OVC007
  • 281030Z AUTO 21005KT 9000 BKN005 BKN190 09/09 Q1010 BECMG SCT020
  • 281000Z AUTO 20003KT 6000 BKN004 09/09 Q1010 TEMPO OVC007
  • 280930Z AUTO 21005KT 5000 BR OVC003/// ///TCU 09/09 Q1010 TEMPO OVC007
  • 280900Z AUTO 20006KT 5000 BR OVC003 09/08 Q1010 TEMPO OVC007

TAF TAF LFQQ
Valid from the 28 at 06:00 until the 29 at 12:00 UTC


280500Z 2806/2912 18007KT 8000 SCT007 BKN035
TEMPO 2806/2810 OVC003
TEMPO 2810/2812 OVC007
BECMG 2812/2814 SCT020
BECMG 2820/2823 2000 BR
BECMG 2823/2902 0600 FG VV///
TEMPO 2902/2910 0300
BECMG 2910/2912 2000 BR OVC002
ATIS : +33 3 20 16 19 54



MET'MAP, your aeronautical weather chart ! - Copyright ORBIFLY December 2007 - Disclaimer

ORBIFLY MET'MAP TEAM :

Programming & Development : Alexandra Zaïnal
Original concept : Baudouin d'Aumeries
Technical & hardware support : Manuel Goepfert
Assistance : Marc-Olivier Méhu




SOURCES & CREDITS :

   NOAA